Rices Crossing, Texas
Current Conditions -  °F | °C
As of 1:58 PM on Thursday 29 Jan 2015 (Local Time) from KGRK Reporting Station
Broken Clouds Broken Clouds  
Wind Chill: 68°   Ceiling: 12000
Heat Index: 68°   Visibility: 10mi
Dew Point: 40°   Wind: 15mph
Humidity: 37%   Direction: 20°NNE
Pressure: 30.23"   Gusts: 20mph
Location:  30.5793°N, 97.5096°W
Report Text: KGRK 291958Z AUTO 02013G17KT 10SM BKN120 20/05 A3023 RMK AO2 SLP232 T01990047
Loading
Personal Weather Stations






























Interactive Weather Map New forecast layout! Learn more

10-Day Weather Forecast

Advertisements
Track Severe Weather on mobile